Ronks, Pennsylvania
Current Conditions -  °F | °C
As of 7:53 AM on Wednesday 22 Oct 2014 (Local Time) from KLNS Reporting Station
Overcast Overcast  
Wind Chill: 54°   Ceiling: 2500
Heat Index: 54°   Visibility: 10mi
Dew Point: 49°   Wind: 10mph
Humidity: 83%   Direction: 360°N
Pressure: 29.91"   Gusts: NA
Location:  40.03°N, 76.17°W
Report Text: KLNS 221153Z 36009KT 10SM OVC025 12/09 A2991 RMK AO2 RAB21E40 SLP129 P0001 60001 70001 T01220094 10128 20117 51010
Loading
Personal Weather Stations






























Interactive Weather Map New forecast layout! Learn more

10-Day Weather Forecast

Advertisements
Track Severe Weather on mobile